createdAt,value
2023-02-28T00:00:20.240Z,6.70
2023-02-28T00:02:47.160Z,5.82
2023-02-28T00:05:14.915Z,7.10
2023-02-28T00:07:43.269Z,6.07
2023-02-28T00:10:11.044Z,6.85
2023-02-28T00:12:37.876Z,6.22
2023-02-28T00:15:06.455Z,10.93
2023-02-28T00:17:33.136Z,6.40
2023-02-28T00:20:12.626Z,5.90
2023-02-28T00:22:39.721Z,6.40
2023-02-28T00:25:08.327Z,6.55
2023-02-28T00:27:34.969Z,5.95
2023-02-28T00:30:02.050Z,6.63
2023-02-28T00:32:28.587Z,7.05
2023-02-28T00:34:55.049Z,7.32
2023-02-28T00:37:21.560Z,8.15
2023-02-28T00:39:48.093Z,6.93
2023-02-28T00:42:16.040Z,6.32
2023-02-28T00:44:42.543Z,7.57
2023-02-28T00:47:09.086Z,7.38
2023-02-28T00:49:35.657Z,6.50
2023-02-28T00:52:02.160Z,7.47
2023-02-28T00:54:28.734Z,8.63
2023-02-28T00:56:55.189Z,7.03
2023-02-28T00:59:22.975Z,9.43
2023-02-28T01:01:49.643Z,6.97
2023-02-28T01:04:16.591Z,7.57
2023-02-28T01:06:43.161Z,6.53
2023-02-28T01:09:10.017Z,6.22
2023-02-28T01:11:36.610Z,7.88
2023-02-28T01:14:03.443Z,8.05
2023-02-28T01:16:31.781Z,6.47
2023-02-28T01:18:58.257Z,7.80
2023-02-28T01:21:24.923Z,8.07
2023-02-28T01:23:51.511Z,10.15
2023-02-28T01:26:19.520Z,5.95
2023-02-28T01:28:46.384Z,6.30
2023-02-28T01:31:13.353Z,8.32
2023-02-28T01:33:41.562Z,7.28
2023-02-28T01:36:09.906Z,6.85
2023-02-28T01:38:36.450Z,7.40
2023-02-28T01:41:03.276Z,7.53
2023-02-28T01:43:30.506Z,6.55
2023-02-28T01:45:57.996Z,9.23
2023-02-28T01:48:27.229Z,7.93
2023-02-28T01:50:55.891Z,8.32
2023-02-28T01:53:24.996Z,9.77
2023-02-28T01:55:52.985Z,9.63
2023-02-28T01:58:19.719Z,8.15
2023-02-28T02:00:46.232Z,8.20
2023-02-28T02:03:16.933Z,9.05
2023-02-28T02:05:48.475Z,10.10
2023-02-28T02:08:17.865Z,7.85
2023-02-28T02:10:50.298Z,8.43
2023-02-28T02:13:26.866Z,6.78
2023-02-28T02:16:00.489Z,8.45
2023-02-28T02:18:30.195Z,10.05
2023-02-28T02:21:12.832Z,10.00
2023-02-28T02:24:00.139Z,9.95
2023-02-28T02:26:45.239Z,12.85
2023-02-28T02:29:31.954Z,8.63
2023-02-28T02:32:10.811Z,8.27
2023-02-28T02:34:42.124Z,9.32
2023-02-28T02:37:13.682Z,9.15
2023-02-28T02:39:45.751Z,8.55
2023-02-28T02:42:15.213Z,9.70
2023-02-28T02:44:45.533Z,8.25
2023-02-28T02:47:13.529Z,8.00
2023-02-28T02:49:44.118Z,7.35
2023-02-28T02:52:12.793Z,8.80
2023-02-28T02:54:41.151Z,8.40
2023-02-28T02:57:09.655Z,8.35
2023-02-28T02:59:36.669Z,10.15
2023-02-28T03:02:05.140Z,7.93
2023-02-28T03:04:33.339Z,9.75
2023-02-28T03:07:01.479Z,10.30
2023-02-28T03:09:27.872Z,9.82
2023-02-28T03:11:55.679Z,9.10
2023-02-28T03:14:27.243Z,10.13
2023-02-28T03:17:12.332Z,12.05
2023-02-28T03:19:46.126Z,7.78
2023-02-28T03:24:44.661Z,8.95
2023-02-28T03:27:12.736Z,9.05
2023-02-28T03:29:42.011Z,8.57
2023-02-28T03:32:15.743Z,10.57
2023-02-28T03:37:11.464Z,12.20
2023-02-28T03:39:39.366Z,8.52
2023-02-28T03:42:09.792Z,7.30
2023-02-28T03:44:38.635Z,8.38
2023-02-28T03:47:07.486Z,8.27
2023-02-28T03:49:36.244Z,8.40
2023-02-28T03:52:04.735Z,9.23
2023-02-28T03:54:32.652Z,8.52
2023-02-28T03:57:04.752Z,8.73
2023-02-28T03:59:35.557Z,9.10
2023-02-28T04:02:02.505Z,9.25
2023-02-28T04:04:29.196Z,8.13
2023-02-28T04:07:02.957Z,7.30
2023-02-28T04:09:29.489Z,9.45
2023-02-28T04:11:57.320Z,7.53
2023-02-28T04:14:24.336Z,8.95
2023-02-28T04:16:52.162Z,9.93
2023-02-28T04:19:19.198Z,8.23
2023-02-28T04:21:46.444Z,11.65
2023-02-28T04:24:15.458Z,6.85
2023-02-28T04:26:44.464Z,8.82
2023-02-28T04:29:13.037Z,8.52
2023-02-28T04:31:39.692Z,7.93
2023-02-28T04:34:07.533Z,8.38
2023-02-28T04:36:34.039Z,8.20
2023-02-28T04:39:00.754Z,8.43
2023-02-28T04:41:29.557Z,26.08
2023-02-28T04:43:57.451Z,23.08
2023-02-28T04:46:24.295Z,13.65
2023-02-28T04:48:50.775Z,12.00
2023-02-28T04:51:19.831Z,12.27
2023-02-28T04:53:47.113Z,14.25
2023-02-28T04:56:14.627Z,22.10
2023-02-28T04:58:41.130Z,14.13
2023-02-28T05:01:18.013Z,13.93
2023-02-28T05:03:44.793Z,11.43
2023-02-28T05:06:11.515Z,9.93
2023-02-28T05:08:39.419Z,11.45
2023-02-28T05:11:07.776Z,10.82
2023-02-28T05:13:34.285Z,11.15
2023-02-28T05:16:00.865Z,27.65
2023-02-28T05:18:27.496Z,50.85
2023-02-28T05:20:54.109Z,49.25
2023-02-28T05:23:21.852Z,13.30
2023-02-28T05:25:49.648Z,49.65
2023-02-28T05:28:16.131Z,71.18
2023-02-28T05:30:42.633Z,24.05
2023-02-28T05:33:11.819Z,42.42
2023-02-28T05:35:39.138Z,28.58
2023-02-28T05:38:05.757Z,32.17
2023-02-28T05:40:32.235Z,25.30
2023-02-28T05:43:00.120Z,21.67
2023-02-28T05:45:26.681Z,24.80
2023-02-28T05:47:54.182Z,13.85
2023-02-28T05:50:20.717Z,21.15
2023-02-28T05:52:49.818Z,18.00
2023-02-28T05:55:16.274Z,11.20
2023-02-28T05:57:43.341Z,23.60
2023-02-28T06:00:12.639Z,19.48
2023-02-28T06:02:40.114Z,13.43
2023-02-28T06:05:07.209Z,12.35
2023-02-28T06:07:33.647Z,12.50
2023-02-28T06:10:00.202Z,12.05
2023-02-28T06:12:26.718Z,9.55
2023-02-28T06:14:53.202Z,9.63
2023-02-28T06:17:21.080Z,9.15
2023-02-28T06:19:48.997Z,11.38
2023-02-28T06:22:15.561Z,10.02
2023-02-28T06:24:42.055Z,10.05
2023-02-28T06:27:08.609Z,10.43
2023-02-28T06:29:36.187Z,9.82
2023-02-28T06:32:03.942Z,7.88
2023-02-28T06:34:31.855Z,11.48
2023-02-28T06:37:03.167Z,10.32
2023-02-28T06:39:29.937Z,9.88
2023-02-28T06:41:56.757Z,11.23
2023-02-28T06:44:23.812Z,10.25
2023-02-28T06:46:50.274Z,10.95
2023-02-28T06:49:17.010Z,10.73
2023-02-28T06:51:48.178Z,10.10
2023-02-28T06:54:14.689Z,9.80
2023-02-28T06:56:41.261Z,11.07
2023-02-28T06:59:07.904Z,12.45
2023-02-28T07:01:34.438Z,11.32
2023-02-28T07:04:01.814Z,12.60
2023-02-28T07:06:28.677Z,8.57
2023-02-28T07:08:56.785Z,9.85
2023-02-28T07:11:23.970Z,8.18
2023-02-28T07:13:50.425Z,7.05
2023-02-28T07:16:17.061Z,8.52
2023-02-28T07:18:43.697Z,7.05
2023-02-28T07:21:10.995Z,6.82
2023-02-28T07:23:38.981Z,8.75
2023-02-28T07:26:07.647Z,8.07
2023-02-28T07:28:34.159Z,8.93
2023-02-28T07:31:04.310Z,8.77
2023-02-28T07:33:30.885Z,8.27
2023-02-28T07:36:01.142Z,10.93
2023-02-28T07:38:27.901Z,6.55
2023-02-28T07:40:54.353Z,8.50
2023-02-28T07:43:22.326Z,7.88
2023-02-28T07:45:48.839Z,9.52
2023-02-28T07:48:15.408Z,7.43
2023-02-28T07:50:42.019Z,8.45
2023-02-28T07:53:08.536Z,10.15
2023-02-28T07:55:35.074Z,7.25
2023-02-28T07:58:01.647Z,11.77
2023-02-28T08:00:30.175Z,7.45
2023-02-28T08:02:56.668Z,7.45
2023-02-28T08:05:23.209Z,6.68
2023-02-28T08:07:49.973Z,7.18
2023-02-28T08:10:16.958Z,9.80
2023-02-28T08:12:43.500Z,8.63
2023-02-28T08:15:10.412Z,7.72
2023-02-28T08:17:38.393Z,9.10
2023-02-28T08:20:05.388Z,7.07
2023-02-28T08:22:31.883Z,7.10
2023-02-28T08:24:58.394Z,7.82
2023-02-28T08:27:24.975Z,7.90
2023-02-28T08:29:51.467Z,6.57
2023-02-28T08:32:29.361Z,8.90
2023-02-28T08:34:57.963Z,7.88
2023-02-28T08:37:24.651Z,7.38
2023-02-28T08:39:51.767Z,7.55
2023-02-28T08:42:19.292Z,7.28
2023-02-28T08:44:45.865Z,6.85
2023-02-28T08:47:12.526Z,7.80
2023-02-28T08:49:39.270Z,6.10
2023-02-28T08:52:07.174Z,8.48
2023-02-28T08:54:35.079Z,8.90
2023-02-28T08:57:01.578Z,7.85
2023-02-28T08:59:28.045Z,5.85
2023-02-28T09:01:54.507Z,6.38
2023-02-28T09:04:21.529Z,6.90
2023-02-28T09:06:49.840Z,8.98
2023-02-28T09:09:17.751Z,5.75
2023-02-28T09:11:46.451Z,6.40
2023-02-28T09:14:13.005Z,6.30
2023-02-28T09:16:39.611Z,7.00
2023-02-28T09:19:06.362Z,6.15
2023-02-28T09:21:32.989Z,7.70
2023-02-28T09:23:59.581Z,7.28
2023-02-28T09:26:34.671Z,7.85
2023-02-28T09:29:05.955Z,6.07
2023-02-28T09:31:32.552Z,6.70
2023-02-28T09:33:59.811Z,7.40
2023-02-28T09:36:38.008Z,5.63
2023-02-28T09:41:48.485Z,6.72
2023-02-28T09:44:19.341Z,6.88
2023-02-28T09:46:48.028Z,6.47
2023-02-28T09:49:15.795Z,6.00
2023-02-28T09:51:47.914Z,6.70
2023-02-28T09:54:20.013Z,7.85
2023-02-28T09:56:50.113Z,7.75
2023-02-28T09:59:24.530Z,6.10
2023-02-28T10:01:55.531Z,6.40
2023-02-28T10:04:31.834Z,6.13
2023-02-28T10:06:58.855Z,7.90
2023-02-28T10:09:26.699Z,5.43
2023-02-28T10:11:58.954Z,7.60
2023-02-28T10:14:26.880Z,6.28
2023-02-28T10:16:56.168Z,7.97
2023-02-28T10:19:25.189Z,10.50
2023-02-28T10:21:55.939Z,6.80
2023-02-28T10:24:25.204Z,6.60
2023-02-28T10:26:53.735Z,8.50
2023-02-28T10:29:21.618Z,8.02
2023-02-28T10:31:48.087Z,7.95
2023-02-28T10:34:14.999Z,7.20
2023-02-28T10:36:46.916Z,6.93
2023-02-28T10:39:34.939Z,6.00
2023-02-28T10:42:01.740Z,6.03
2023-02-28T10:44:29.590Z,5.88
2023-02-28T10:46:57.948Z,6.35
2023-02-28T10:49:25.301Z,7.00
2023-02-28T10:51:53.122Z,6.75
2023-02-28T10:54:21.587Z,8.00
2023-02-28T10:57:06.330Z,7.55
2023-02-28T10:59:34.151Z,8.55
2023-02-28T11:02:00.858Z,6.35
2023-02-28T11:04:34.091Z,6.38
2023-02-28T11:07:01.271Z,5.70
2023-02-28T11:09:30.331Z,7.60
2023-02-28T11:11:57.163Z,7.20
2023-02-28T11:14:26.331Z,5.47
2023-02-28T11:16:57.328Z,7.65
2023-02-28T11:19:25.634Z,6.47
2023-02-28T11:21:54.598Z,5.70
2023-02-28T11:24:24.139Z,7.00
2023-02-28T11:26:50.731Z,5.88
2023-02-28T11:29:20.238Z,7.32
2023-02-28T11:32:04.895Z,7.15
2023-02-28T11:34:33.076Z,13.57
2023-02-28T11:37:00.584Z,6.20
2023-02-28T11:39:27.631Z,6.60
2023-02-28T11:42:03.196Z,5.95
2023-02-28T11:44:34.933Z,7.10
2023-02-28T11:47:03.992Z,7.13
2023-02-28T11:49:36.883Z,5.65
2023-02-28T11:52:09.677Z,6.50
2023-02-28T11:54:55.325Z,10.27
2023-02-28T11:57:30.334Z,9.05
2023-02-28T12:00:02.367Z,7.65
2023-02-28T12:02:30.252Z,6.50
2023-02-28T12:05:07.879Z,7.05
2023-02-28T12:07:38.729Z,5.85
2023-02-28T12:10:08.243Z,6.38
2023-02-28T12:12:39.892Z,8.77
2023-02-28T12:15:33.325Z,6.80
2023-02-28T12:18:10.329Z,6.43
2023-02-28T12:20:40.968Z,7.90
2023-02-28T12:23:20.869Z,9.38
2023-02-28T12:26:11.337Z,9.05
2023-02-28T12:28:40.769Z,6.80
2023-02-28T12:31:12.472Z,7.00
2023-02-28T12:33:41.819Z,8.50
2023-02-28T12:36:11.514Z,6.75
2023-02-28T12:38:41.301Z,6.80
2023-02-28T12:41:13.070Z,6.75
2023-02-28T12:43:43.693Z,6.75
2023-02-28T12:46:12.059Z,7.22
2023-02-28T12:48:43.713Z,8.15
2023-02-28T12:51:12.648Z,8.48
2023-02-28T12:53:44.612Z,7.32
2023-02-28T12:56:14.819Z,7.32
2023-02-28T12:58:44.519Z,7.07
2023-02-28T13:01:29.082Z,7.75
2023-02-28T13:04:07.820Z,7.07
2023-02-28T13:06:40.823Z,10.18
2023-02-28T13:09:10.392Z,8.30
2023-02-28T13:11:41.090Z,7.13
2023-02-28T13:14:17.521Z,7.38
2023-02-28T13:16:58.723Z,6.78
2023-02-28T13:19:26.631Z,6.68
2023-02-28T13:21:55.199Z,6.57
2023-02-28T13:24:39.365Z,7.18
2023-02-28T13:29:34.674Z,7.05
2023-02-28T13:32:20.324Z,6.82
2023-02-28T13:35:08.064Z,6.75
2023-02-28T13:37:39.249Z,6.75
2023-02-28T13:40:24.419Z,7.75
2023-02-28T13:42:51.618Z,8.02
2023-02-28T13:45:21.888Z,6.22
2023-02-28T13:47:52.741Z,7.65
2023-02-28T13:50:22.654Z,6.32
2023-02-28T13:52:55.319Z,6.22
2023-02-28T13:55:30.139Z,11.02
2023-02-28T13:58:08.041Z,10.20
2023-02-28T14:00:43.880Z,8.50
2023-02-28T14:03:16.122Z,5.72
2023-02-28T14:05:43.309Z,6.28
2023-02-28T14:08:16.566Z,7.65
2023-02-28T14:10:44.573Z,7.00
2023-02-28T14:13:35.055Z,8.10
2023-02-28T14:16:02.003Z,6.50
2023-02-28T14:18:30.546Z,5.97
2023-02-28T14:20:59.667Z,6.90
2023-02-28T14:23:35.224Z,7.05
2023-02-28T14:26:07.887Z,7.13
2023-02-28T14:28:44.205Z,7.65
2023-02-28T14:31:14.487Z,6.65
2023-02-28T14:33:59.665Z,7.20
2023-02-28T14:36:27.989Z,7.40
2023-02-28T14:38:57.271Z,6.95
2023-02-28T14:41:24.858Z,8.25
2023-02-28T14:43:52.992Z,7.80
2023-02-28T14:46:20.776Z,7.03
2023-02-28T14:48:47.556Z,5.85
2023-02-28T14:51:19.173Z,7.22
2023-02-28T14:53:47.373Z,7.57
2023-02-28T14:56:21.026Z,7.03
2023-02-28T15:01:20.423Z,8.18
2023-02-28T15:03:48.278Z,7.07
2023-02-28T15:06:15.859Z,8.98
2023-02-28T15:08:42.553Z,8.07
2023-02-28T15:11:13.585Z,8.52
2023-02-28T15:13:42.957Z,7.15
2023-02-28T15:16:11.739Z,8.15
2023-02-28T15:18:43.562Z,8.63
2023-02-28T15:21:13.140Z,8.98
2023-02-28T15:23:40.374Z,7.07
2023-02-28T15:26:07.506Z,6.32
2023-02-28T15:28:34.226Z,9.02
2023-02-28T15:31:03.083Z,8.63
2023-02-28T15:33:30.385Z,8.88
2023-02-28T15:36:14.911Z,7.35
2023-02-28T15:38:42.467Z,7.18
2023-02-28T15:41:22.280Z,7.03
2023-02-28T15:43:48.952Z,7.18
2023-02-28T15:46:17.969Z,11.68
2023-02-28T15:48:45.453Z,7.82
2023-02-28T15:51:17.658Z,6.40
2023-02-28T15:53:46.614Z,6.78
2023-02-28T15:56:25.832Z,7.85
2023-02-28T15:58:55.305Z,9.25
2023-02-28T16:01:25.356Z,6.97
2023-02-28T16:03:53.862Z,9.05
2023-02-28T16:06:25.631Z,7.55
2023-02-28T16:08:52.536Z,7.20
2023-02-28T16:11:19.736Z,6.13
2023-02-28T16:13:49.235Z,6.60
2023-02-28T16:16:16.806Z,12.23
2023-02-28T16:18:44.858Z,7.70
2023-02-28T16:21:11.508Z,8.77
2023-02-28T16:23:38.051Z,7.55
2023-02-28T16:26:04.939Z,8.80
2023-02-28T16:28:50.017Z,8.27
2023-02-28T16:31:17.692Z,8.60
2023-02-28T16:33:46.342Z,8.52
2023-02-28T16:36:17.213Z,9.27
2023-02-28T16:38:43.795Z,8.50
2023-02-28T16:41:17.467Z,9.00
2023-02-28T16:43:44.702Z,8.93
2023-02-28T16:46:12.030Z,7.63
2023-02-28T16:48:38.748Z,9.55
2023-02-28T16:51:06.855Z,8.55
2023-02-28T16:53:33.456Z,7.70
2023-02-28T16:56:03.126Z,8.15
2023-02-28T16:58:29.920Z,8.57
2023-02-28T17:00:56.625Z,8.43
2023-02-28T17:03:32.624Z,8.70
2023-02-28T17:05:59.983Z,9.13
2023-02-28T17:08:29.851Z,9.45
2023-02-28T17:10:56.737Z,10.35
2023-02-28T17:13:23.237Z,7.90
2023-02-28T17:15:50.407Z,13.27
2023-02-28T17:18:19.969Z,7.35
2023-02-28T17:20:46.531Z,7.93
2023-02-28T17:23:13.188Z,7.93
2023-02-28T17:25:41.111Z,6.82
2023-02-28T17:28:07.722Z,8.75
2023-02-28T17:30:35.598Z,8.73
2023-02-28T17:33:02.527Z,8.98
2023-02-28T17:35:29.397Z,7.88
2023-02-28T17:37:56.219Z,7.07
2023-02-28T17:40:24.271Z,10.15
2023-02-28T17:42:53.398Z,7.35
2023-02-28T17:45:21.047Z,8.32
2023-02-28T17:47:48.403Z,7.85
2023-02-28T17:50:16.406Z,8.43
2023-02-28T17:52:42.979Z,9.38
2023-02-28T17:55:10.396Z,9.48
2023-02-28T17:57:36.997Z,9.98
2023-02-28T18:00:07.802Z,11.45
2023-02-28T18:02:34.442Z,9.60
2023-02-28T18:05:01.066Z,9.27
2023-02-28T18:07:27.644Z,9.68
2023-02-28T18:09:54.447Z,10.05
2023-02-28T18:12:21.117Z,9.63
2023-02-28T18:14:48.800Z,7.72
2023-02-28T18:17:16.852Z,8.40
2023-02-28T18:19:43.556Z,8.50
2023-02-28T18:22:10.444Z,8.75
2023-02-28T18:24:37.190Z,9.88
2023-02-28T18:27:03.915Z,10.32
2023-02-28T18:29:31.822Z,12.20
2023-02-28T18:31:58.557Z,10.93
2023-02-28T18:34:26.712Z,11.02
2023-02-28T18:36:53.678Z,9.52
2023-02-28T18:39:20.412Z,8.90
2023-02-28T18:41:47.214Z,10.30
2023-02-28T18:47:42.169Z,10.00
2023-02-28T18:50:11.419Z,9.23
2023-02-28T18:52:39.382Z,12.05
2023-02-28T18:55:08.470Z,11.35
2023-02-28T18:57:35.190Z,8.60
2023-02-28T19:00:01.801Z,10.30
2023-02-28T19:02:28.442Z,12.65
2023-02-28T19:04:55.537Z,12.20
2023-02-28T19:07:23.938Z,10.40
2023-02-28T19:09:50.764Z,8.98
2023-02-28T19:12:19.432Z,13.05
2023-02-28T19:14:49.053Z,9.93
2023-02-28T19:17:16.306Z,9.77
2023-02-28T19:19:42.970Z,9.63
2023-02-28T19:22:09.674Z,11.60
2023-02-28T19:24:37.712Z,8.63
2023-02-28T19:27:04.473Z,8.70
2023-02-28T19:29:31.183Z,9.70
2023-02-28T19:31:58.152Z,12.18
2023-02-28T19:34:24.822Z,11.23
2023-02-28T19:36:51.629Z,10.77
2023-02-28T19:39:19.192Z,13.15
2023-02-28T19:41:47.231Z,15.48
2023-02-28T19:44:13.970Z,16.42
2023-02-28T19:46:40.674Z,17.35
2023-02-28T19:49:07.322Z,17.30
2023-02-28T19:51:34.498Z,18.13
2023-02-28T19:54:01.249Z,11.23
2023-02-28T19:56:28.248Z,11.38
2023-02-28T19:58:58.843Z,12.48
2023-02-28T20:01:26.090Z,15.27
2023-02-28T20:03:52.808Z,15.75
2023-02-28T20:06:19.592Z,12.90
2023-02-28T20:08:46.524Z,15.75
2023-02-28T20:11:15.073Z,12.40
2023-02-28T20:13:41.903Z,12.68
2023-02-28T20:16:11.157Z,12.65
2023-02-28T20:18:38.418Z,11.57
2023-02-28T20:21:05.350Z,13.80
2023-02-28T20:23:32.256Z,17.70
2023-02-28T20:25:59.426Z,21.40
2023-02-28T20:28:26.266Z,13.45
2023-02-28T20:30:53.015Z,13.65
2023-02-28T20:33:21.170Z,14.57
2023-02-28T20:35:49.240Z,12.65
2023-02-28T20:38:16.077Z,13.63
2023-02-28T20:40:42.952Z,14.57
2023-02-28T20:43:09.968Z,13.02
2023-02-28T20:45:36.659Z,18.80
2023-02-28T20:48:03.392Z,17.05
2023-02-28T20:50:31.874Z,17.70
2023-02-28T20:52:58.649Z,17.25
2023-02-28T20:55:25.490Z,15.77
2023-02-28T20:57:54.394Z,16.60
2023-02-28T21:00:22.625Z,19.30
2023-02-28T21:02:49.629Z,18.95
2023-02-28T21:05:17.130Z,18.55
2023-02-28T21:07:45.310Z,19.23
2023-02-28T21:10:12.125Z,17.38
2023-02-28T21:12:38.825Z,17.67
2023-02-28T21:15:05.915Z,16.35
2023-02-28T21:17:32.632Z,17.80
2023-02-28T21:19:59.333Z,18.00
2023-02-28T21:22:25.985Z,19.40
2023-02-28T21:24:54.138Z,20.98
2023-02-28T21:27:20.925Z,17.55
2023-02-28T21:29:47.814Z,20.10
2023-02-28T21:32:14.821Z,18.55
2023-02-28T21:34:41.751Z,21.00
2023-02-28T21:37:08.653Z,18.17
2023-02-28T21:39:35.945Z,20.20
2023-02-28T21:42:04.403Z,19.75
2023-02-28T21:44:31.437Z,20.25
2023-02-28T21:47:01.151Z,22.67
2023-02-28T21:49:28.574Z,23.75
2023-02-28T21:51:55.291Z,20.92
2023-02-28T21:54:21.914Z,20.13
2023-02-28T21:56:50.563Z,19.88
2023-02-28T21:59:19.092Z,22.02
2023-02-28T22:01:46.088Z,17.92
2023-02-28T22:04:23.203Z,20.50
2023-02-28T22:06:51.358Z,20.65
2023-02-28T22:09:18.252Z,18.45
2023-02-28T22:11:45.149Z,19.45
2023-02-28T22:14:12.633Z,18.83
2023-02-28T22:16:51.173Z,17.48
2023-02-28T22:19:18.333Z,20.42
2023-02-28T22:21:45.749Z,21.15
2023-02-28T22:24:12.356Z,22.50
2023-02-28T22:26:38.889Z,21.00
2023-02-28T22:29:05.635Z,18.58
2023-02-28T22:31:32.942Z,22.67
2023-02-28T22:34:01.826Z,21.55
2023-02-28T22:36:29.081Z,19.85
2023-02-28T22:38:57.237Z,18.38
2023-02-28T22:41:24.097Z,17.85
2023-02-28T22:43:52.748Z,19.05
2023-02-28T22:46:19.570Z,20.80
2023-02-28T22:48:48.099Z,19.00
2023-02-28T22:51:16.639Z,19.98
2023-02-28T22:53:43.880Z,21.52
2023-02-28T22:56:11.222Z,20.00
2023-02-28T22:58:37.962Z,20.65
2023-02-28T23:01:07.834Z,21.95
2023-02-28T23:03:34.607Z,19.75
2023-02-28T23:06:01.588Z,20.08
2023-02-28T23:08:29.364Z,19.55
2023-02-28T23:10:55.982Z,17.05
2023-02-28T23:13:22.519Z,21.77
2023-02-28T23:15:49.468Z,18.42
2023-02-28T23:18:15.957Z,20.95
2023-02-28T23:20:42.590Z,18.05
2023-02-28T23:23:10.160Z,18.65
2023-02-28T23:25:40.592Z,21.02
2023-02-28T23:28:07.465Z,19.48
2023-02-28T23:30:34.271Z,16.38
2023-02-28T23:33:01.177Z,16.48
2023-02-28T23:35:27.746Z,25.27
2023-02-28T23:37:56.228Z,24.08
2023-02-28T23:40:22.665Z,21.02
2023-02-28T23:42:51.192Z,26.17
2023-02-28T23:45:18.201Z,27.33
2023-02-28T23:47:44.865Z,22.10
2023-02-28T23:50:11.694Z,29.38
2023-02-28T23:52:38.207Z,19.95
2023-02-28T23:55:05.040Z,30.77
2023-02-28T23:57:31.552Z,26.70
2023-02-28T23:59:59.619Z,18.40
